QFA124 YMML-YSSY
Flight info
| Callsign | QFA124 |
|---|---|
| Flight time | 1h 2m |
| Altitude | 41000 |
| Route | ML H129 DOSEL Y59 RIVET |
| Aircraft | A359/H-SDE2E3GHIJ3J4J5LM1ORWXY/LB1D1 |
Departure
| Time | 2026-04-21 07:14 |
|---|---|
| Airport | Melbourne Airport (YMML) |
Arrival
| Time | 2026-04-21 08:17 |
|---|---|
| Airport | Sydney Kingsford Smith International Airport (YSSY) |
| Time | Latitude | Longitude | Altitude | Speed | Heading |
|---|---|---|---|---|---|
| 2026-04-21 06:16 | -37.66899 | 144.84341 | 390 ft | 0 kts | 82° |
| 2026-04-21 07:03 | -37.66903 | 144.84317 | 389 ft | 4 kts | 72° |
| 2026-04-21 07:03 | -37.66912 | 144.84285 | 391 ft | 4 kts | 67° |
| 2026-04-21 07:04 | -37.66920 | 144.84255 | 386 ft | 4 kts | 101° |
| 2026-04-21 07:04 | -37.66911 | 144.84230 | 390 ft | 4 kts | 128° |
| 2026-04-21 07:04 | -37.66892 | 144.84209 | 393 ft | 4 kts | 162° |
| 2026-04-21 07:04 | -37.66866 | 144.84204 | 394 ft | 5 kts | 179° |
| 2026-04-21 07:05 | -37.66844 | 144.84203 | 393 ft | 0 kts | 172° |
| 2026-04-21 07:07 | -37.66864 | 144.84207 | 393 ft | 9 kts | 170° |
| 2026-04-21 07:07 | -37.66950 | 144.84222 | 393 ft | 16 kts | 172° |
| 2026-04-21 07:08 | -37.67048 | 144.84240 | 391 ft | 13 kts | 171° |
| 2026-04-21 07:08 | -37.67155 | 144.84261 | 389 ft | 18 kts | 171° |
| 2026-04-21 07:08 | -37.67260 | 144.84280 | 387 ft | 14 kts | 171° |
| 2026-04-21 07:08 | -37.67374 | 144.84301 | 385 ft | 19 kts | 171° |
| 2026-04-21 07:09 | -37.67483 | 144.84322 | 382 ft | 12 kts | 172° |
| 2026-04-21 07:09 | -37.67585 | 144.84341 | 379 ft | 16 kts | 171° |
| 2026-04-21 07:09 | -37.67653 | 144.84354 | 377 ft | 8 kts | 171° |
| 2026-04-21 07:09 | -37.67706 | 144.84363 | 376 ft | 0 kts | 172° |
| 2026-04-21 07:10 | -37.67724 | 144.84367 | 378 ft | 6 kts | 172° |
| 2026-04-21 07:10 | -37.67790 | 144.84379 | 374 ft | 13 kts | 172° |
| 2026-04-21 07:10 | -37.67898 | 144.84399 | 371 ft | 16 kts | 171° |
| 2026-04-21 07:10 | -37.67984 | 144.84415 | 366 ft | 12 kts | 172° |
| 2026-04-21 07:11 | -37.68088 | 144.84435 | 365 ft | 19 kts | 171° |
| 2026-04-21 07:11 | -37.68212 | 144.84458 | 361 ft | 18 kts | 172° |
| 2026-04-21 07:11 | -37.68310 | 144.84475 | 358 ft | 15 kts | 174° |
| 2026-04-21 07:11 | -37.68363 | 144.84477 | 356 ft | 0 kts | 181° |
| 2026-04-21 07:12 | -37.68376 | 144.84465 | 359 ft | 11 kts | 220° |
| 2026-04-21 07:12 | -37.68443 | 144.84392 | 356 ft | 12 kts | 216° |
| 2026-04-21 07:12 | -37.68517 | 144.84321 | 355 ft | 14 kts | 224° |
| 2026-04-21 07:13 | -37.68547 | 144.84252 | 355 ft | 14 kts | 256° |
| 2026-04-21 07:13 | -37.68536 | 144.84139 | 357 ft | 13 kts | 301° |
| 2026-04-21 07:13 | -37.68443 | 144.84074 | 356 ft | 32 kts | 348° |
| 2026-04-21 07:13 | -37.67930 | 144.83978 | 362 ft | 114 kts | 352° |
| 2026-04-21 07:14 | -37.67309 | 144.83860 | 383 ft | 158 kts | 351° |
| 2026-04-21 07:14 | -37.65857 | 144.83538 | 1560 ft | 154 kts | 352° |
| 2026-04-21 07:14 | -37.64771 | 144.83349 | 2134 ft | 167 kts | 352° |
| 2026-04-21 07:14 | -37.63545 | 144.83127 | 2415 ft | 189 kts | 352° |
| 2026-04-21 07:15 | -37.62626 | 144.82956 | 2558 ft | 207 kts | 351° |
| 2026-04-21 07:15 | -37.60573 | 144.82563 | 2960 ft | 241 kts | 351° |
| 2026-04-21 07:15 | -37.58842 | 144.82519 | 3480 ft | 256 kts | 12° |
| 2026-04-21 07:15 | -37.57725 | 144.83093 | 4047 ft | 258 kts | 25° |
| 2026-04-21 07:16 | -37.55572 | 144.84461 | 4995 ft | 266 kts | 24° |
| 2026-04-21 07:16 | -37.54453 | 144.85145 | 5450 ft | 271 kts | 24° |
| 2026-04-21 07:16 | -37.52740 | 144.86180 | 6195 ft | 275 kts | 23° |
| 2026-04-21 07:16 | -37.51004 | 144.87225 | 6936 ft | 277 kts | 23° |
| 2026-04-21 07:17 | -37.48671 | 144.88635 | 7838 ft | 284 kts | 24° |
| 2026-04-21 07:17 | -37.47465 | 144.89365 | 8318 ft | 286 kts | 24° |
| 2026-04-21 07:17 | -37.45071 | 144.90830 | 9240 ft | 292 kts | 26° |
| 2026-04-21 07:17 | -37.43917 | 144.91743 | 9667 ft | 297 kts | 38° |
| 2026-04-21 07:18 | -37.42491 | 144.93668 | 10362 ft | 300 kts | 53° |
| 2026-04-21 07:18 | -37.41259 | 144.95817 | 10743 ft | 315 kts | 55° |
| 2026-04-21 07:18 | -37.39973 | 144.98136 | 11015 ft | 332 kts | 56° |
| 2026-04-21 07:18 | -37.38618 | 145.00572 | 11329 ft | 345 kts | 55° |
| 2026-04-21 07:19 | -37.37222 | 145.03059 | 11865 ft | 349 kts | 56° |
| 2026-04-21 07:19 | -37.35812 | 145.05563 | 12441 ft | 353 kts | 56° |
| 2026-04-21 07:19 | -37.34380 | 145.08100 | 12987 ft | 357 kts | 56° |
| 2026-04-21 07:19 | -37.32933 | 145.10657 | 13535 ft | 361 kts | 56° |
| 2026-04-21 07:20 | -37.31470 | 145.13240 | 14074 ft | 364 kts | 56° |
| 2026-04-21 07:20 | -37.29997 | 145.15839 | 14566 ft | 367 kts | 56° |
| 2026-04-21 07:20 | -37.28507 | 145.18465 | 15078 ft | 370 kts | 56° |
| 2026-04-21 07:20 | -37.27009 | 145.21102 | 15591 ft | 372 kts | 56° |
| 2026-04-21 07:21 | -37.25495 | 145.23766 | 16107 ft | 375 kts | 56° |
| 2026-04-21 07:21 | -37.23991 | 145.26410 | 16618 ft | 378 kts | 56° |
| 2026-04-21 07:21 | -37.22454 | 145.29107 | 17112 ft | 381 kts | 56° |
| 2026-04-21 07:21 | -37.20907 | 145.31823 | 17632 ft | 384 kts | 56° |
| 2026-04-21 07:22 | -37.19349 | 145.34555 | 18122 ft | 387 kts | 56° |
| 2026-04-21 07:22 | -37.17775 | 145.37314 | 18614 ft | 390 kts | 56° |
| 2026-04-21 07:22 | -37.16194 | 145.40083 | 19036 ft | 393 kts | 56° |
| 2026-04-21 07:22 | -37.14597 | 145.42886 | 19462 ft | 396 kts | 56° |
| 2026-04-21 07:23 | -37.12988 | 145.45698 | 19886 ft | 399 kts | 56° |
| 2026-04-21 07:23 | -37.11360 | 145.48532 | 20319 ft | 401 kts | 56° |
| 2026-04-21 07:23 | -37.09721 | 145.51384 | 20743 ft | 404 kts | 56° |
| 2026-04-21 07:23 | -37.08075 | 145.54246 | 21170 ft | 407 kts | 56° |
| 2026-04-21 07:24 | -37.06433 | 145.57099 | 21584 ft | 410 kts | 56° |
| 2026-04-21 07:24 | -37.04740 | 145.60039 | 21987 ft | 413 kts | 56° |
| 2026-04-21 07:24 | -37.03055 | 145.62965 | 22412 ft | 415 kts | 56° |
| 2026-04-21 07:24 | -37.01361 | 145.65903 | 22822 ft | 418 kts | 56° |
| 2026-04-21 07:25 | -36.99678 | 145.68820 | 23229 ft | 421 kts | 56° |
| 2026-04-21 07:25 | -36.97935 | 145.71838 | 23629 ft | 423 kts | 56° |
| 2026-04-21 07:25 | -36.96206 | 145.74830 | 24009 ft | 426 kts | 56° |
| 2026-04-21 07:25 | -36.94464 | 145.77840 | 24347 ft | 429 kts | 55° |
| 2026-04-21 07:26 | -36.92731 | 145.80835 | 24694 ft | 431 kts | 55° |
| 2026-04-21 07:26 | -36.90965 | 145.83882 | 25040 ft | 434 kts | 55° |
| 2026-04-21 07:26 | -36.89187 | 145.86946 | 25404 ft | 436 kts | 55° |
| 2026-04-21 07:26 | -36.87398 | 145.90028 | 25759 ft | 439 kts | 55° |
| 2026-04-21 07:27 | -36.85601 | 145.93121 | 26117 ft | 441 kts | 55° |
| 2026-04-21 07:27 | -36.83791 | 145.96233 | 26511 ft | 444 kts | 55° |
| 2026-04-21 07:27 | -36.81970 | 145.99360 | 26902 ft | 446 kts | 55° |
| 2026-04-21 07:27 | -36.80142 | 146.02498 | 27321 ft | 449 kts | 54° |
| 2026-04-21 07:28 | -36.78296 | 146.05662 | 27750 ft | 452 kts | 54° |
| 2026-04-21 07:28 | -36.76435 | 146.08851 | 28122 ft | 457 kts | 54° |
| 2026-04-21 07:28 | -36.74554 | 146.12069 | 28583 ft | 459 kts | 54° |
| 2026-04-21 07:28 | -36.72670 | 146.15291 | 29043 ft | 462 kts | 54° |
| 2026-04-21 07:29 | -36.70769 | 146.18539 | 29484 ft | 465 kts | 54° |
| 2026-04-21 07:29 | -36.68850 | 146.21813 | 29939 ft | 469 kts | 54° |
| 2026-04-21 07:29 | -36.66941 | 146.25066 | 30389 ft | 472 kts | 54° |
| 2026-04-21 07:29 | -36.64993 | 146.28384 | 30799 ft | 476 kts | 54° |
| 2026-04-21 07:30 | -36.63033 | 146.31718 | 31225 ft | 479 kts | 54° |
| 2026-04-21 07:30 | -36.61055 | 146.35080 | 31530 ft | 484 kts | 54° |
| 2026-04-21 07:30 | -36.59050 | 146.38485 | 31940 ft | 487 kts | 54° |
| 2026-04-21 07:30 | -36.57042 | 146.41891 | 32373 ft | 490 kts | 54° |
| 2026-04-21 07:31 | -36.55015 | 146.45326 | 32777 ft | 492 kts | 54° |
| 2026-04-21 07:31 | -36.52984 | 146.48765 | 33180 ft | 495 kts | 54° |
| 2026-04-21 07:31 | -36.50941 | 146.52220 | 33562 ft | 498 kts | 54° |
| 2026-04-21 07:31 | -36.48904 | 146.55662 | 33926 ft | 500 kts | 54° |
| 2026-04-21 07:32 | -36.46835 | 146.59153 | 34268 ft | 503 kts | 54° |
| 2026-04-21 07:32 | -36.44751 | 146.62667 | 34567 ft | 507 kts | 54° |
| 2026-04-21 07:32 | -36.42652 | 146.66203 | 34839 ft | 510 kts | 54° |
| 2026-04-21 07:32 | -36.40540 | 146.69756 | 35116 ft | 513 kts | 54° |
| 2026-04-21 07:33 | -36.38415 | 146.73329 | 35388 ft | 516 kts | 54° |
| 2026-04-21 07:33 | -36.36275 | 146.76922 | 35714 ft | 517 kts | 54° |
| 2026-04-21 07:33 | -36.34128 | 146.80522 | 36087 ft | 518 kts | 54° |
| 2026-04-21 07:33 | -36.31983 | 146.84116 | 36453 ft | 518 kts | 54° |
| 2026-04-21 07:34 | -36.29838 | 146.87705 | 36861 ft | 518 kts | 54° |
| 2026-04-21 07:34 | -36.27688 | 146.91299 | 37253 ft | 519 kts | 54° |
| 2026-04-21 07:34 | -36.25539 | 146.94889 | 37623 ft | 519 kts | 54° |
| 2026-04-21 07:34 | -36.23386 | 146.98482 | 37990 ft | 519 kts | 54° |
| 2026-04-21 07:35 | -36.21254 | 147.02037 | 38328 ft | 520 kts | 54° |
| 2026-04-21 07:35 | -36.19093 | 147.05635 | 38625 ft | 522 kts | 54° |
| 2026-04-21 07:35 | -36.16927 | 147.09238 | 38965 ft | 522 kts | 54° |
| 2026-04-21 07:35 | -36.14756 | 147.12841 | 39291 ft | 522 kts | 54° |
| 2026-04-21 07:36 | -36.12589 | 147.16436 | 39623 ft | 520 kts | 54° |
| 2026-04-21 07:36 | -36.10427 | 147.20020 | 39905 ft | 520 kts | 54° |
| 2026-04-21 07:36 | -36.08255 | 147.23618 | 40170 ft | 521 kts | 54° |
| 2026-04-21 07:36 | -36.06088 | 147.27204 | 40383 ft | 522 kts | 54° |
| 2026-04-21 07:37 | -36.03908 | 147.30808 | 40606 ft | 523 kts | 54° |
| 2026-04-21 07:37 | -36.01731 | 147.34402 | 40886 ft | 523 kts | 54° |
| 2026-04-21 07:37 | -35.99555 | 147.37989 | 41154 ft | 522 kts | 53° |
| 2026-04-21 07:37 | -35.97370 | 147.41588 | 41305 ft | 524 kts | 54° |
| 2026-04-21 07:38 | -35.92993 | 147.48789 | 41304 ft | 523 kts | 54° |
| 2026-04-21 07:38 | -35.88641 | 147.55932 | 41304 ft | 524 kts | 54° |
| 2026-04-21 07:39 | -35.84256 | 147.63114 | 41311 ft | 524 kts | 54° |
| 2026-04-21 07:39 | -35.79871 | 147.70284 | 41294 ft | 523 kts | 54° |
| 2026-04-21 07:40 | -35.75471 | 147.77459 | 41312 ft | 524 kts | 54° |
| 2026-04-21 07:40 | -35.71080 | 147.84607 | 41310 ft | 524 kts | 54° |
| 2026-04-21 07:41 | -35.66703 | 147.91717 | 41305 ft | 524 kts | 53° |
| 2026-04-21 07:41 | -35.62295 | 147.98862 | 41313 ft | 524 kts | 54° |
| 2026-04-21 07:42 | -35.57884 | 148.05997 | 41316 ft | 524 kts | 54° |
| 2026-04-21 07:42 | -35.53468 | 148.13128 | 41314 ft | 524 kts | 54° |
| 2026-04-21 07:43 | -35.49047 | 148.20252 | 41344 ft | 525 kts | 53° |
| 2026-04-21 07:43 | -35.44617 | 148.27375 | 41326 ft | 525 kts | 54° |
| 2026-04-21 07:44 | -35.40209 | 148.34461 | 41326 ft | 526 kts | 54° |
| 2026-04-21 07:44 | -35.35759 | 148.41583 | 41331 ft | 525 kts | 53° |
| 2026-04-21 07:45 | -35.31303 | 148.48694 | 41354 ft | 526 kts | 54° |
| 2026-04-21 07:45 | -35.26850 | 148.55793 | 41337 ft | 526 kts | 54° |
| 2026-04-21 07:46 | -35.22422 | 148.62840 | 41337 ft | 525 kts | 54° |
| 2026-04-21 07:46 | -35.17956 | 148.69934 | 41338 ft | 526 kts | 53° |
| 2026-04-21 07:47 | -35.13494 | 148.77006 | 41348 ft | 526 kts | 54° |
| 2026-04-21 07:47 | -35.09022 | 148.84080 | 41335 ft | 526 kts | 53° |
| 2026-04-21 07:48 | -35.04549 | 148.91141 | 41340 ft | 526 kts | 53° |
| 2026-04-21 07:48 | -35.00067 | 148.98202 | 41344 ft | 527 kts | 53° |
| 2026-04-21 07:49 | -34.95571 | 149.05273 | 41356 ft | 527 kts | 53° |
| 2026-04-21 07:49 | -34.93355 | 149.08751 | 41206 ft | 525 kts | 53° |
| 2026-04-21 07:49 | -34.91132 | 149.12237 | 41002 ft | 517 kts | 53° |
| 2026-04-21 07:50 | -34.88927 | 149.15691 | 40220 ft | 515 kts | 53° |
| 2026-04-21 07:50 | -34.86729 | 149.19130 | 39187 ft | 514 kts | 53° |
| 2026-04-21 07:50 | -34.84548 | 149.22540 | 38467 ft | 507 kts | 53° |
| 2026-04-21 07:50 | -34.82381 | 149.25925 | 37819 ft | 506 kts | 54° |
| 2026-04-21 07:51 | -34.80213 | 149.29310 | 37153 ft | 506 kts | 54° |
| 2026-04-21 07:51 | -34.78391 | 149.32152 | 36556 ft | 506 kts | 54° |
| 2026-04-21 07:51 | -34.76220 | 149.35536 | 35866 ft | 506 kts | 54° |
| 2026-04-21 07:51 | -34.74168 | 149.38997 | 35166 ft | 505 kts | 61° |
| 2026-04-21 07:52 | -34.72403 | 149.42690 | 34375 ft | 506 kts | 63° |
| 2026-04-21 07:52 | -34.70701 | 149.46457 | 33463 ft | 508 kts | 64° |
| 2026-04-21 07:52 | -34.69059 | 149.50201 | 32604 ft | 509 kts | 65° |
| 2026-04-21 07:52 | -34.67410 | 149.54009 | 31802 ft | 509 kts | 65° |
| 2026-04-21 07:53 | -34.65771 | 149.57801 | 31157 ft | 505 kts | 65° |
| 2026-04-21 07:53 | -34.64136 | 149.61570 | 30541 ft | 501 kts | 65° |
| 2026-04-21 07:53 | -34.62510 | 149.65303 | 29824 ft | 498 kts | 65° |
| 2026-04-21 07:53 | -34.60898 | 149.68992 | 29173 ft | 492 kts | 65° |
| 2026-04-21 07:54 | -34.59297 | 149.72643 | 28558 ft | 487 kts | 64° |
| 2026-04-21 07:54 | -34.57712 | 149.76250 | 27921 ft | 482 kts | 64° |
| 2026-04-21 07:54 | -34.56141 | 149.79820 | 27300 ft | 477 kts | 64° |
| 2026-04-21 07:54 | -34.54585 | 149.83355 | 26703 ft | 472 kts | 64° |
| 2026-04-21 07:55 | -34.53044 | 149.86850 | 26093 ft | 468 kts | 64° |
| 2026-04-21 07:55 | -34.51514 | 149.90319 | 25490 ft | 464 kts | 64° |
| 2026-04-21 07:55 | -34.49995 | 149.93759 | 24872 ft | 461 kts | 64° |
| 2026-04-21 07:55 | -34.48488 | 149.97173 | 24270 ft | 457 kts | 64° |
| 2026-04-21 07:56 | -34.46991 | 150.00556 | 23599 ft | 453 kts | 64° |
| 2026-04-21 07:56 | -34.45508 | 150.03903 | 22955 ft | 448 kts | 64° |
| 2026-04-21 07:56 | -34.44056 | 150.07178 | 22353 ft | 443 kts | 64° |
| 2026-04-21 07:56 | -34.42601 | 150.10454 | 21726 ft | 439 kts | 64° |
| 2026-04-21 07:57 | -34.41161 | 150.13694 | 21096 ft | 435 kts | 64° |
| 2026-04-21 07:57 | -34.39735 | 150.16900 | 20483 ft | 431 kts | 64° |
| 2026-04-21 07:57 | -34.38322 | 150.20076 | 19880 ft | 427 kts | 64° |
| 2026-04-21 07:57 | -34.36914 | 150.23239 | 19244 ft | 423 kts | 64° |
| 2026-04-21 07:58 | -34.35524 | 150.26357 | 18608 ft | 419 kts | 64° |
| 2026-04-21 07:58 | -34.34146 | 150.29445 | 17917 ft | 415 kts | 64° |
| 2026-04-21 07:58 | -34.32782 | 150.32497 | 17283 ft | 409 kts | 64° |
| 2026-04-21 07:58 | -34.31435 | 150.35499 | 16675 ft | 404 kts | 64° |
| 2026-04-21 07:59 | -34.30105 | 150.38475 | 16069 ft | 400 kts | 64° |
| 2026-04-21 07:59 | -34.28790 | 150.41416 | 15452 ft | 396 kts | 64° |
| 2026-04-21 07:59 | -34.27486 | 150.44336 | 14850 ft | 392 kts | 64° |
| 2026-04-21 07:59 | -34.26200 | 150.47222 | 14256 ft | 388 kts | 64° |
| 2026-04-21 08:00 | -34.24919 | 150.50085 | 13612 ft | 383 kts | 64° |
| 2026-04-21 08:00 | -34.23676 | 150.52861 | 13017 ft | 378 kts | 64° |
| 2026-04-21 08:00 | -34.22427 | 150.55649 | 12413 ft | 373 kts | 64° |
| 2026-04-21 08:00 | -34.21193 | 150.58400 | 11832 ft | 370 kts | 64° |
| 2026-04-21 08:01 | -34.19974 | 150.61116 | 11241 ft | 366 kts | 64° |
| 2026-04-21 08:01 | -34.18774 | 150.63789 | 10852 ft | 355 kts | 63° |
| 2026-04-21 08:01 | -34.17621 | 150.66354 | 10616 ft | 340 kts | 64° |
| 2026-04-21 08:02 | -34.15549 | 150.70947 | 10215 ft | 284 kts | 64° |
| 2026-04-21 08:02 | -34.14639 | 150.72964 | 10077 ft | 268 kts | 64° |
| 2026-04-21 08:02 | -34.13741 | 150.74967 | 9945 ft | 276 kts | 64° |
| 2026-04-21 08:02 | -34.12801 | 150.77065 | 9853 ft | 289 kts | 64° |
| 2026-04-21 08:03 | -34.11867 | 150.79136 | 9413 ft | 282 kts | 65° |
| 2026-04-21 08:03 | -34.10921 | 150.81237 | 8978 ft | 287 kts | 65° |
| 2026-04-21 08:03 | -34.09963 | 150.83359 | 8632 ft | 288 kts | 65° |
| 2026-04-21 08:03 | -34.09014 | 150.85480 | 8309 ft | 286 kts | 64° |
| 2026-04-21 08:04 | -34.08385 | 150.86873 | 8091 ft | 285 kts | 65° |
| 2026-04-21 08:04 | -34.07442 | 150.88971 | 7775 ft | 284 kts | 64° |
| 2026-04-21 08:04 | -34.06500 | 150.91056 | 7449 ft | 282 kts | 65° |
| 2026-04-21 08:04 | -34.05560 | 150.93135 | 7124 ft | 282 kts | 65° |
| 2026-04-21 08:05 | -34.04626 | 150.95204 | 6801 ft | 280 kts | 65° |
| 2026-04-21 08:05 | -34.03683 | 150.97246 | 6474 ft | 279 kts | 62° |
| 2026-04-21 08:05 | -34.02351 | 150.98902 | 6144 ft | 272 kts | 34° |
| 2026-04-21 08:05 | -34.00613 | 150.99614 | 5840 ft | 261 kts | 5° |
| 2026-04-21 08:06 | -33.98812 | 150.99535 | 5581 ft | 257 kts | 354° |
| 2026-04-21 08:06 | -33.97039 | 150.99284 | 5353 ft | 257 kts | 353° |
| 2026-04-21 08:06 | -33.95270 | 150.99006 | 5130 ft | 255 kts | 352° |
| 2026-04-21 08:06 | -33.93513 | 150.98728 | 4896 ft | 254 kts | 353° |
| 2026-04-21 08:07 | -33.91755 | 150.98439 | 4628 ft | 254 kts | 352° |
| 2026-04-21 08:07 | -33.90001 | 150.98149 | 4370 ft | 254 kts | 353° |
| 2026-04-21 08:07 | -33.88252 | 150.97855 | 4221 ft | 255 kts | 352° |
| 2026-04-21 08:07 | -33.86515 | 150.97568 | 4095 ft | 255 kts | 353° |
| 2026-04-21 08:08 | -33.84762 | 150.97278 | 3968 ft | 254 kts | 353° |
| 2026-04-21 08:08 | -33.83015 | 150.96987 | 3846 ft | 254 kts | 353° |
| 2026-04-21 08:08 | -33.81261 | 150.96906 | 3725 ft | 252 kts | 12° |
| 2026-04-21 08:08 | -33.79703 | 150.97750 | 3718 ft | 243 kts | 43° |
| 2026-04-21 08:09 | -33.78736 | 150.99281 | 3706 ft | 220 kts | 69° |
| 2026-04-21 08:09 | -33.78201 | 151.00923 | 3672 ft | 203 kts | 80° |
| 2026-04-21 08:09 | -33.77859 | 151.02512 | 3617 ft | 191 kts | 82° |
| 2026-04-21 08:09 | -33.77557 | 151.04034 | 3560 ft | 184 kts | 82° |
| 2026-04-21 08:10 | -33.77258 | 151.05527 | 3511 ft | 183 kts | 83° |
| 2026-04-21 08:10 | -33.76963 | 151.07013 | 3478 ft | 183 kts | 83° |
| 2026-04-21 08:10 | -33.76675 | 151.08503 | 3451 ft | 183 kts | 83° |
| 2026-04-21 08:10 | -33.76381 | 151.09988 | 3428 ft | 182 kts | 83° |
| 2026-04-21 08:11 | -33.76146 | 151.11468 | 3373 ft | 178 kts | 95° |
| 2026-04-21 08:11 | -33.76608 | 151.12645 | 3357 ft | 146 kts | 147° |
| 2026-04-21 08:11 | -33.77502 | 151.13156 | 3238 ft | 142 kts | 165° |
| 2026-04-21 08:11 | -33.78447 | 151.13381 | 3041 ft | 139 kts | 167° |
| 2026-04-21 08:12 | -33.79388 | 151.13635 | 2788 ft | 138 kts | 167° |
| 2026-04-21 08:12 | -33.80314 | 151.13882 | 2569 ft | 134 kts | 167° |
| 2026-04-21 08:12 | -33.81209 | 151.14115 | 2399 ft | 129 kts | 167° |
| 2026-04-21 08:12 | -33.82077 | 151.14341 | 2223 ft | 128 kts | 168° |
| 2026-04-21 08:13 | -33.82955 | 151.14569 | 2061 ft | 128 kts | 167° |
| 2026-04-21 08:13 | -33.83794 | 151.14786 | 1880 ft | 118 kts | 167° |
| 2026-04-21 08:13 | -33.84567 | 151.14987 | 1731 ft | 112 kts | 167° |
| 2026-04-21 08:13 | -33.85327 | 151.15185 | 1580 ft | 112 kts | 169° |
| 2026-04-21 08:14 | -33.86102 | 151.15385 | 1435 ft | 115 kts | 168° |
| 2026-04-21 08:14 | -33.86879 | 151.15588 | 1274 ft | 112 kts | 169° |
| 2026-04-21 08:14 | -33.87645 | 151.15788 | 1120 ft | 113 kts | 170° |
| 2026-04-21 08:14 | -33.88406 | 151.15979 | 950 ft | 112 kts | 170° |
| 2026-04-21 08:15 | -33.89157 | 151.16172 | 786 ft | 112 kts | 168° |
| 2026-04-21 08:15 | -33.89916 | 151.16374 | 633 ft | 110 kts | 169° |
| 2026-04-21 08:15 | -33.90665 | 151.16569 | 473 ft | 110 kts | 167° |
| 2026-04-21 08:15 | -33.91427 | 151.16766 | 352 ft | 114 kts | 169° |
| 2026-04-21 08:16 | -33.92195 | 151.16966 | 199 ft | 111 kts | 169° |
| 2026-04-21 08:16 | -33.92945 | 151.17159 | 58 ft | 111 kts | 167° |
| 2026-04-21 08:16 | -33.93673 | 151.17350 | 23 ft | 96 kts | 168° |
| 2026-04-21 08:16 | -33.94207 | 151.17488 | 31 ft | 62 kts | 168° |
| 2026-04-21 08:17 | -33.94469 | 151.17557 | 30 ft | 32 kts | 167° |
| 2026-04-21 08:17 | -33.94649 | 151.17602 | 31 ft | 18 kts | 168° |
| 2026-04-21 08:17 | -33.94741 | 151.17557 | 30 ft | 16 kts | 238° |
| 2026-04-21 08:17 | -33.94744 | 151.17493 | 31 ft | 0 kts | 280° |
| 2026-04-21 08:18 | -33.94729 | 151.17452 | 31 ft | 10 kts | 301° |
| 2026-04-21 08:18 | -33.94663 | 151.17404 | 32 ft | 13 kts | 346° |
| 2026-04-21 08:18 | -33.94560 | 151.17375 | 32 ft | 18 kts | 347° |
| 2026-04-21 08:18 | -33.94424 | 151.17341 | 33 ft | 22 kts | 347° |
| 2026-04-21 08:19 | -33.94263 | 151.17300 | 29 ft | 22 kts | 347° |
| 2026-04-21 08:19 | -33.94119 | 151.17262 | 28 ft | 19 kts | 347° |
| 2026-04-21 08:19 | -33.94018 | 151.17235 | 27 ft | 13 kts | 347° |
| 2026-04-21 08:19 | -33.93911 | 151.17208 | 26 ft | 16 kts | 348° |
| 2026-04-21 08:20 | -33.93820 | 151.17184 | 24 ft | 14 kts | 348° |
| 2026-04-21 08:20 | -33.93755 | 151.17167 | 26 ft | 5 kts | 345° |
| 2026-04-21 08:20 | -33.93727 | 151.17146 | 28 ft | 3 kts | 313° |
| 2026-04-21 08:20 | -33.93725 | 151.17141 | 28 ft | 0 kts | 307° |
| 2026-04-21 08:21 | -33.93719 | 151.17129 | 27 ft | 5 kts | 295° |
| 2026-04-21 08:21 | -33.93724 | 151.17073 | 27 ft | 8 kts | 239° |
| 2026-04-21 08:21 | -33.93776 | 151.17057 | 27 ft | 9 kts | 175° |
| 2026-04-21 08:21 | -33.93831 | 151.17046 | 27 ft | 6 kts | 226° |
| 2026-04-21 08:22 | -33.93843 | 151.17022 | 27 ft | 0 kts | 241° |
| 2026-04-21 08:22 | -33.93845 | 151.17019 | 27 ft | 1 kts | 242° |
| 2026-04-21 08:22 | -33.93846 | 151.17015 | 27 ft | 2 kts | 244° |
| 2026-04-21 08:22 | -33.93854 | 151.16990 | 27 ft | 2 kts | 250° |
| 2026-04-21 08:23 | -33.93858 | 151.16976 | 27 ft | 3 kts | 252° |
| 2026-04-21 08:23 | -33.93859 | 151.16973 | 27 ft | 1 kts | 252° |
| 2026-04-21 08:23 | -33.93861 | 151.16967 | 27 ft | 1 kts | 252° |